sensor_id;sensor_type;location;lat;lon;timestamp;temperature;humidity
40600;DHT22;26309;50.924;4.754;2023-05-15T00:00:55;11.50;99.90
40600;DHT22;26309;50.924;4.754;2023-05-15T00:03:21;11.50;99.90
40600;DHT22;26309;50.924;4.754;2023-05-15T00:05:51;11.50;99.90
40600;DHT22;26309;50.924;4.754;2023-05-15T00:08:17;11.50;99.90
40600;DHT22;26309;50.924;4.754;2023-05-15T00:10:43;11.60;99.90
40600;DHT22;26309;50.924;4.754;2023-05-15T00:13:08;11.50;99.90
40600;DHT22;26309;50.924;4.754;2023-05-15T00:15:34;11.30;99.90
40600;DHT22;26309;50.924;4.754;2023-05-15T00:18:00;11.10;99.90
40600;DHT22;26309;50.924;4.754;2023-05-15T00:20:26;11.20;99.90
40600;DHT22;26309;50.924;4.754;2023-05-15T00:22:52;11.30;99.90
40600;DHT22;26309;50.924;4.754;2023-05-15T00:25:17;11.20;99.90
40600;DHT22;26309;50.924;4.754;2023-05-15T00:27:44;11.10;99.90
40600;DHT22;26309;50.924;4.754;2023-05-15T00:30:11;11.10;99.90
40600;DHT22;26309;50.924;4.754;2023-05-15T00:32:37;11.10;99.90
40600;DHT22;26309;50.924;4.754;2023-05-15T00:35:04;11.10;99.90
40600;DHT22;26309;50.924;4.754;2023-05-15T00:37:29;11.40;99.90
40600;DHT22;26309;50.924;4.754;2023-05-15T00:39:55;11.50;99.90
40600;DHT22;26309;50.924;4.754;2023-05-15T00:42:22;11.60;99.90
40600;DHT22;26309;50.924;4.754;2023-05-15T00:44:49;11.60;99.90
40600;DHT22;26309;50.924;4.754;2023-05-15T00:47:19;11.40;99.90
40600;DHT22;26309;50.924;4.754;2023-05-15T00:49:46;11.20;99.90
40600;DHT22;26309;50.924;4.754;2023-05-15T00:52:14;11.20;99.90
40600;DHT22;26309;50.924;4.754;2023-05-15T00:54:39;11.40;99.90
40600;DHT22;26309;50.924;4.754;2023-05-15T00:57:07;11.50;99.90
40600;DHT22;26309;50.924;4.754;2023-05-15T00:59:33;11.50;99.90
40600;DHT22;26309;50.924;4.754;2023-05-15T01:02:01;11.50;99.90
40600;DHT22;26309;50.924;4.754;2023-05-15T01:04:27;11.20;99.90
40600;DHT22;26309;50.924;4.754;2023-05-15T01:06:53;11.20;99.90
40600;DHT22;26309;50.924;4.754;2023-05-15T01:09:21;11.40;99.90
40600;DHT22;26309;50.924;4.754;2023-05-15T01:11:49;11.30;99.90
40600;DHT22;26309;50.924;4.754;2023-05-15T01:14:18;11.30;99.90
40600;DHT22;26309;50.924;4.754;2023-05-15T01:16:44;11.30;99.90
40600;DHT22;26309;50.924;4.754;2023-05-15T01:19:10;11.40;99.90
40600;DHT22;26309;50.924;4.754;2023-05-15T01:27:17;11.40;99.90
40600;DHT22;26309;50.924;4.754;2023-05-15T01:30:20;11.50;99.90
40600;DHT22;26309;50.924;4.754;2023-05-15T01:33:04;11.40;99.90
40600;DHT22;26309;50.924;4.754;2023-05-15T01:35:49;11.40;99.90
40600;DHT22;26309;50.924;4.754;2023-05-15T01:40:43;11.20;99.90
40600;DHT22;26309;50.924;4.754;2023-05-15T01:43:21;11.20;99.90
40600;DHT22;26309;50.924;4.754;2023-05-15T01:45:47;11.10;99.90
40600;DHT22;26309;50.924;4.754;2023-05-15T01:48:14;11.00;99.90
40600;DHT22;26309;50.924;4.754;2023-05-15T01:50:45;11.10;99.90
40600;DHT22;26309;50.924;4.754;2023-05-15T01:53:12;11.20;99.90
40600;DHT22;26309;50.924;4.754;2023-05-15T01:55:39;11.20;99.90
40600;DHT22;26309;50.924;4.754;2023-05-15T01:58:06;11.10;99.90
40600;DHT22;26309;50.924;4.754;2023-05-15T02:00:33;11.20;99.90
40600;DHT22;26309;50.924;4.754;2023-05-15T02:03:00;11.20;99.90
40600;DHT22;26309;50.924;4.754;2023-05-15T02:05:26;11.20;99.90
40600;DHT22;26309;50.924;4.754;2023-05-15T02:07:52;11.30;99.90
40600;DHT22;26309;50.924;4.754;2023-05-15T02:10:20;11.30;99.90
40600;DHT22;26309;50.924;4.754;2023-05-15T02:12:46;11.10;99.90
40600;DHT22;26309;50.924;4.754;2023-05-15T02:15:16;11.10;99.90
40600;DHT22;26309;50.924;4.754;2023-05-15T02:17:43;11.00;99.90
40600;DHT22;26309;50.924;4.754;2023-05-15T02:20:09;11.00;99.90
40600;DHT22;26309;50.924;4.754;2023-05-15T02:22:35;11.00;99.90
40600;DHT22;26309;50.924;4.754;2023-05-15T02:25:01;11.00;99.90
40600;DHT22;26309;50.924;4.754;2023-05-15T02:27:32;10.80;99.90
40600;DHT22;26309;50.924;4.754;2023-05-15T02:37:47;10.70;99.90
40600;DHT22;26309;50.924;4.754;2023-05-15T02:40:14;10.70;99.90
40600;DHT22;26309;50.924;4.754;2023-05-15T02:42:42;10.60;99.90
40600;DHT22;26309;50.924;4.754;2023-05-15T02:45:09;10.60;99.90
40600;DHT22;26309;50.924;4.754;2023-05-15T02:47:36;10.70;99.90
40600;DHT22;26309;50.924;4.754;2023-05-15T02:50:02;10.80;99.90
40600;DHT22;26309;50.924;4.754;2023-05-15T02:52:29;10.90;99.90
40600;DHT22;26309;50.924;4.754;2023-05-15T02:54:55;10.80;99.90
40600;DHT22;26309;50.924;4.754;2023-05-15T02:57:21;10.70;99.90
40600;DHT22;26309;50.924;4.754;2023-05-15T02:59:47;10.70;99.90
40600;DHT22;26309;50.924;4.754;2023-05-15T03:02:13;10.50;99.90
40600;DHT22;26309;50.924;4.754;2023-05-15T03:04:39;10.50;99.90
40600;DHT22;26309;50.924;4.754;2023-05-15T03:07:04;10.40;99.90
40600;DHT22;26309;50.924;4.754;2023-05-15T03:09:30;10.40;99.90
40600;DHT22;26309;50.924;4.754;2023-05-15T03:11:56;10.50;99.90
40600;DHT22;26309;50.924;4.754;2023-05-15T03:14:22;10.40;99.90
40600;DHT22;26309;50.924;4.754;2023-05-15T03:16:48;10.50;99.90
40600;DHT22;26309;50.924;4.754;2023-05-15T03:19:13;10.70;99.90
40600;DHT22;26309;50.924;4.754;2023-05-15T03:21:39;10.80;99.90
40600;DHT22;26309;50.924;4.754;2023-05-15T03:24:06;11.00;99.90
40600;DHT22;26309;50.924;4.754;2023-05-15T03:26:31;11.00;99.90
40600;DHT22;26309;50.924;4.754;2023-05-15T03:28:59;11.10;99.90
40600;DHT22;26309;50.924;4.754;2023-05-15T03:31:26;11.00;99.90
40600;DHT22;26309;50.924;4.754;2023-05-15T03:33:52;10.80;99.90
40600;DHT22;26309;50.924;4.754;2023-05-15T03:36:18;10.80;99.90
40600;DHT22;26309;50.924;4.754;2023-05-15T03:38:44;10.80;99.90
40600;DHT22;26309;50.924;4.754;2023-05-15T03:41:10;11.00;99.90
40600;DHT22;26309;50.924;4.754;2023-05-15T03:43:35;10.90;99.90
40600;DHT22;26309;50.924;4.754;2023-05-15T03:46:05;11.00;99.90
40600;DHT22;26309;50.924;4.754;2023-05-15T03:48:31;10.90;99.90
40600;DHT22;26309;50.924;4.754;2023-05-15T03:50:56;11.10;99.90
40600;DHT22;26309;50.924;4.754;2023-05-15T03:53:25;11.00;99.90
40600;DHT22;26309;50.924;4.754;2023-05-15T03:55:51;11.00;99.90
40600;DHT22;26309;50.924;4.754;2023-05-15T03:58:17;10.70;99.90
40600;DHT22;26309;50.924;4.754;2023-05-15T04:00:43;10.70;99.90
40600;DHT22;26309;50.924;4.754;2023-05-15T04:03:09;10.60;99.90
40600;DHT22;26309;50.924;4.754;2023-05-15T04:05:34;10.60;99.90
40600;DHT22;26309;50.924;4.754;2023-05-15T04:08:00;10.70;99.90
40600;DHT22;26309;50.924;4.754;2023-05-15T04:10:26;10.80;99.90
40600;DHT22;26309;50.924;4.754;2023-05-15T04:12:52;10.80;99.90
40600;DHT22;26309;50.924;4.754;2023-05-15T04:17:47;10.60;99.90
40600;DHT22;26309;50.924;4.754;2023-05-15T04:20:14;10.60;99.90
40600;DHT22;26309;50.924;4.754;2023-05-15T04:22:41;10.70;99.90
40600;DHT22;26309;50.924;4.754;2023-05-15T04:25:08;10.70;99.90
40600;DHT22;26309;50.924;4.754;2023-05-15T04:27:35;10.90;99.90
40600;DHT22;26309;50.924;4.754;2023-05-15T04:30:02;10.80;99.90
40600;DHT22;26309;50.924;4.754;2023-05-15T04:32:29;10.70;99.90
40600;DHT22;26309;50.924;4.754;2023-05-15T04:34:55;10.60;99.90
40600;DHT22;26309;50.924;4.754;2023-05-15T04:37:21;10.50;99.90
40600;DHT22;26309;50.924;4.754;2023-05-15T04:39:47;10.80;99.90
40600;DHT22;26309;50.924;4.754;2023-05-15T04:42:13;10.80;99.90
40600;DHT22;26309;50.924;4.754;2023-05-15T04:44:39;10.80;99.90
40600;DHT22;26309;50.924;4.754;2023-05-15T04:47:04;10.90;99.90
40600;DHT22;26309;50.924;4.754;2023-05-15T04:49:30;10.60;99.90
40600;DHT22;26309;50.924;4.754;2023-05-15T04:51:56;10.60;99.90
40600;DHT22;26309;50.924;4.754;2023-05-15T04:54:22;10.50;99.90
40600;DHT22;26309;50.924;4.754;2023-05-15T04:56:48;10.70;99.90
40600;DHT22;26309;50.924;4.754;2023-05-15T04:59:14;10.80;99.90
40600;DHT22;26309;50.924;4.754;2023-05-15T05:01:40;10.60;99.90
40600;DHT22;26309;50.924;4.754;2023-05-15T05:04:06;10.60;99.90
40600;DHT22;26309;50.924;4.754;2023-05-15T05:06:32;10.70;99.90
40600;DHT22;26309;50.924;4.754;2023-05-15T05:08:58;11.00;99.90
40600;DHT22;26309;50.924;4.754;2023-05-15T05:11:24;11.20;99.90
40600;DHT22;26309;50.924;4.754;2023-05-15T05:13:50;11.40;99.90
40600;DHT22;26309;50.924;4.754;2023-05-15T05:16:16;11.50;99.90
40600;DHT22;26309;50.924;4.754;2023-05-15T05:18:42;11.70;99.90
40600;DHT22;26309;50.924;4.754;2023-05-15T05:21:08;12.20;99.90
40600;DHT22;26309;50.924;4.754;2023-05-15T05:23:33;11.40;99.90
40600;DHT22;26309;50.924;4.754;2023-05-15T05:25:59;10.90;99.90
40600;DHT22;26309;50.924;4.754;2023-05-15T05:28:25;11.10;99.90
40600;DHT22;26309;50.924;4.754;2023-05-15T05:30:52;11.30;99.90
40600;DHT22;26309;50.924;4.754;2023-05-15T05:33:18;11.30;99.90
40600;DHT22;26309;50.924;4.754;2023-05-15T05:35:44;11.00;99.90
40600;DHT22;26309;50.924;4.754;2023-05-15T05:38:10;10.80;99.90
40600;DHT22;26309;50.924;4.754;2023-05-15T05:40:36;10.80;99.90
40600;DHT22;26309;50.924;4.754;2023-05-15T05:43:03;10.90;99.90
40600;DHT22;26309;50.924;4.754;2023-05-15T05:45:29;11.10;99.90
40600;DHT22;26309;50.924;4.754;2023-05-15T05:47:55;11.10;99.90
40600;DHT22;26309;50.924;4.754;2023-05-15T05:50:22;11.30;99.90
40600;DHT22;26309;50.924;4.754;2023-05-15T05:52:48;11.40;99.90
40600;DHT22;26309;50.924;4.754;2023-05-15T05:55:14;11.60;99.90
40600;DHT22;26309;50.924;4.754;2023-05-15T05:57:40;11.70;99.90
40600;DHT22;26309;50.924;4.754;2023-05-15T06:00:06;11.70;99.90
40600;DHT22;26309;50.924;4.754;2023-05-15T06:02:39;11.70;99.90
40600;DHT22;26309;50.924;4.754;2023-05-15T06:05:05;11.50;99.90
40600;DHT22;26309;50.924;4.754;2023-05-15T06:07:33;11.10;99.90
40600;DHT22;26309;50.924;4.754;2023-05-15T06:09:59;11.30;99.90
40600;DHT22;26309;50.924;4.754;2023-05-15T06:12:25;11.50;99.90
40600;DHT22;26309;50.924;4.754;2023-05-15T06:14:52;11.70;99.90
40600;DHT22;26309;50.924;4.754;2023-05-15T06:17:18;11.60;99.90
40600;DHT22;26309;50.924;4.754;2023-05-15T06:19:44;11.60;99.90
40600;DHT22;26309;50.924;4.754;2023-05-15T06:22:10;11.50;99.90
40600;DHT22;26309;50.924;4.754;2023-05-15T06:24:36;11.50;99.90
40600;DHT22;26309;50.924;4.754;2023-05-15T06:27:02;11.20;99.90
40600;DHT22;26309;50.924;4.754;2023-05-15T06:29:28;11.00;99.90
40600;DHT22;26309;50.924;4.754;2023-05-15T06:31:54;11.10;99.90
40600;DHT22;26309;50.924;4.754;2023-05-15T06:34:19;11.10;99.90
40600;DHT22;26309;50.924;4.754;2023-05-15T06:36:45;11.30;99.90
40600;DHT22;26309;50.924;4.754;2023-05-15T06:39:11;11.30;99.90
40600;DHT22;26309;50.924;4.754;2023-05-15T06:41:38;11.30;99.90
40600;DHT22;26309;50.924;4.754;2023-05-15T06:44:04;11.50;99.90
40600;DHT22;26309;50.924;4.754;2023-05-15T06:46:30;11.70;99.90
40600;DHT22;26309;50.924;4.754;2023-05-15T06:48:56;11.90;99.90
40600;DHT22;26309;50.924;4.754;2023-05-15T06:51:22;12.10;99.90
40600;DHT22;26309;50.924;4.754;2023-05-15T06:53:48;12.30;99.90
40600;DHT22;26309;50.924;4.754;2023-05-15T06:56:14;12.40;99.90
40600;DHT22;26309;50.924;4.754;2023-05-15T06:58:41;12.60;99.90
40600;DHT22;26309;50.924;4.754;2023-05-15T07:01:08;12.30;99.90
40600;DHT22;26309;50.924;4.754;2023-05-15T07:03:34;12.20;99.90
40600;DHT22;26309;50.924;4.754;2023-05-15T07:06:00;12.20;99.90
40600;DHT22;26309;50.924;4.754;2023-05-15T07:08:26;12.50;99.90
40600;DHT22;26309;50.924;4.754;2023-05-15T07:10:52;12.80;99.90
40600;DHT22;26309;50.924;4.754;2023-05-15T07:13:23;13.00;99.90
40600;DHT22;26309;50.924;4.754;2023-05-15T07:15:48;13.30;99.90
40600;DHT22;26309;50.924;4.754;2023-05-15T07:18:14;13.60;99.90
40600;DHT22;26309;50.924;4.754;2023-05-15T07:20:40;13.80;99.90
40600;DHT22;26309;50.924;4.754;2023-05-15T07:23:06;13.90;99.90
40600;DHT22;26309;50.924;4.754;2023-05-15T07:25:32;13.90;99.90
40600;DHT22;26309;50.924;4.754;2023-05-15T07:28:01;14.20;99.90
40600;DHT22;26309;50.924;4.754;2023-05-15T07:30:27;14.40;99.90
40600;DHT22;26309;50.924;4.754;2023-05-15T07:32:52;14.30;99.90
40600;DHT22;26309;50.924;4.754;2023-05-15T07:35:18;14.30;99.90
40600;DHT22;26309;50.924;4.754;2023-05-15T07:37:44;14.10;99.90
40600;DHT22;26309;50.924;4.754;2023-05-15T07:40:11;14.10;99.90
40600;DHT22;26309;50.924;4.754;2023-05-15T07:42:37;13.90;99.90
40600;DHT22;26309;50.924;4.754;2023-05-15T07:45:05;13.90;99.90
40600;DHT22;26309;50.924;4.754;2023-05-15T07:47:31;14.00;99.90
40600;DHT22;26309;50.924;4.754;2023-05-15T07:49:57;14.10;99.90
40600;DHT22;26309;50.924;4.754;2023-05-15T07:52:23;14.10;99.90
40600;DHT22;26309;50.924;4.754;2023-05-15T07:54:49;14.10;99.90
40600;DHT22;26309;50.924;4.754;2023-05-15T07:57:15;14.30;99.90
40600;DHT22;26309;50.924;4.754;2023-05-15T07:59:40;14.30;99.90
40600;DHT22;26309;50.924;4.754;2023-05-15T08:02:06;14.50;99.90
40600;DHT22;26309;50.924;4.754;2023-05-15T08:04:32;14.90;99.90
40600;DHT22;26309;50.924;4.754;2023-05-15T08:06:58;15.00;99.90
40600;DHT22;26309;50.924;4.754;2023-05-15T08:09:24;15.40;99.90
40600;DHT22;26309;50.924;4.754;2023-05-15T08:11:50;15.80;99.90
40600;DHT22;26309;50.924;4.754;2023-05-15T08:14:22;16.00;99.90
40600;DHT22;26309;50.924;4.754;2023-05-15T08:16:49;16.10;99.90
40600;DHT22;26309;50.924;4.754;2023-05-15T08:19:16;16.20;99.90
40600;DHT22;26309;50.924;4.754;2023-05-15T08:21:41;16.50;99.90
40600;DHT22;26309;50.924;4.754;2023-05-15T08:24:07;16.60;99.90
40600;DHT22;26309;50.924;4.754;2023-05-15T08:26:33;16.70;99.90
40600;DHT22;26309;50.924;4.754;2023-05-15T08:28:59;17.00;99.90
40600;DHT22;26309;50.924;4.754;2023-05-15T08:31:25;17.10;99.90
40600;DHT22;26309;50.924;4.754;2023-05-15T08:33:51;17.20;99.90
40600;DHT22;26309;50.924;4.754;2023-05-15T08:36:17;17.10;99.90
40600;DHT22;26309;50.924;4.754;2023-05-15T08:38:44;17.30;99.90
40600;DHT22;26309;50.924;4.754;2023-05-15T08:41:27;17.40;99.90
40600;DHT22;26309;50.924;4.754;2023-05-15T08:43:57;17.40;99.90
40600;DHT22;26309;50.924;4.754;2023-05-15T08:46:23;17.10;99.90
40600;DHT22;26309;50.924;4.754;2023-05-15T08:48:50;16.60;99.90
40600;DHT22;26309;50.924;4.754;2023-05-15T08:51:18;16.60;99.90
40600;DHT22;26309;50.924;4.754;2023-05-15T08:53:45;16.60;99.90
40600;DHT22;26309;50.924;4.754;2023-05-15T08:56:11;16.30;99.90
40600;DHT22;26309;50.924;4.754;2023-05-15T08:58:37;16.40;99.90
40600;DHT22;26309;50.924;4.754;2023-05-15T09:01:04;16.40;99.90
40600;DHT22;26309;50.924;4.754;2023-05-15T09:03:30;16.40;99.90
40600;DHT22;26309;50.924;4.754;2023-05-15T09:05:57;16.50;99.90
40600;DHT22;26309;50.924;4.754;2023-05-15T09:08:24;16.90;99.90
40600;DHT22;26309;50.924;4.754;2023-05-15T09:10:52;17.10;99.90
40600;DHT22;26309;50.924;4.754;2023-05-15T09:13:18;16.70;99.90
40600;DHT22;26309;50.924;4.754;2023-05-15T09:15:44;16.80;99.90
40600;DHT22;26309;50.924;4.754;2023-05-15T09:18:14;16.70;99.90
40600;DHT22;26309;50.924;4.754;2023-05-15T09:20:41;17.00;99.90
40600;DHT22;26309;50.924;4.754;2023-05-15T09:23:25;16.80;99.90
40600;DHT22;26309;50.924;4.754;2023-05-15T09:25:51;17.10;99.90
40600;DHT22;26309;50.924;4.754;2023-05-15T09:28:30;17.60;99.90
40600;DHT22;26309;50.924;4.754;2023-05-15T09:31:00;17.30;99.90
40600;DHT22;26309;50.924;4.754;2023-05-15T09:33:35;16.80;99.90
40600;DHT22;26309;50.924;4.754;2023-05-15T09:36:03;16.50;99.90
40600;DHT22;26309;50.924;4.754;2023-05-15T09:38:32;16.60;99.90
40600;DHT22;26309;50.924;4.754;2023-05-15T09:41:03;16.80;99.90
40600;DHT22;26309;50.924;4.754;2023-05-15T09:43:35;16.60;99.90
40600;DHT22;26309;50.924;4.754;2023-05-15T09:46:02;16.40;99.90
40600;DHT22;26309;50.924;4.754;2023-05-15T09:48:29;16.60;99.90
40600;DHT22;26309;50.924;4.754;2023-05-15T09:50:55;16.70;99.90
40600;DHT22;26309;50.924;4.754;2023-05-15T09:53:22;16.40;99.90
40600;DHT22;26309;50.924;4.754;2023-05-15T09:55:49;16.10;99.90
40600;DHT22;26309;50.924;4.754;2023-05-15T09:58:16;16.10;99.90
40600;DHT22;26309;50.924;4.754;2023-05-15T10:00:44;15.90;99.90
40600;DHT22;26309;50.924;4.754;2023-05-15T10:03:11;15.80;99.90
40600;DHT22;26309;50.924;4.754;2023-05-15T10:05:37;15.70;99.90
40600;DHT22;26309;50.924;4.754;2023-05-15T10:08:04;15.80;99.90
40600;DHT22;26309;50.924;4.754;2023-05-15T10:10:30;16.20;99.90
40600;DHT22;26309;50.924;4.754;2023-05-15T10:12:59;16.30;99.90
40600;DHT22;26309;50.924;4.754;2023-05-15T10:15:28;16.60;99.90
40600;DHT22;26309;50.924;4.754;2023-05-15T10:17:54;16.50;99.90
40600;DHT22;26309;50.924;4.754;2023-05-15T10:20:23;16.50;99.90
40600;DHT22;26309;50.924;4.754;2023-05-15T10:22:54;16.50;99.90
40600;DHT22;26309;50.924;4.754;2023-05-15T10:25:32;16.50;99.90
40600;DHT22;26309;50.924;4.754;2023-05-15T10:27:59;16.40;99.90
40600;DHT22;26309;50.924;4.754;2023-05-15T10:30:25;16.60;99.90
40600;DHT22;26309;50.924;4.754;2023-05-15T10:32:54;16.60;99.90
40600;DHT22;26309;50.924;4.754;2023-05-15T10:35:20;16.40;99.90
40600;DHT22;26309;50.924;4.754;2023-05-15T10:37:48;16.50;99.90
40600;DHT22;26309;50.924;4.754;2023-05-15T10:40:15;17.00;99.90
40600;DHT22;26309;50.924;4.754;2023-05-15T10:42:44;17.20;99.90
40600;DHT22;26309;50.924;4.754;2023-05-15T10:45:11;17.10;99.90
40600;DHT22;26309;50.924;4.754;2023-05-15T10:47:41;17.00;99.90
40600;DHT22;26309;50.924;4.754;2023-05-15T10:50:08;17.30;99.90
40600;DHT22;26309;50.924;4.754;2023-05-15T10:52:35;17.50;99.90
40600;DHT22;26309;50.924;4.754;2023-05-15T10:55:04;17.70;99.90
40600;DHT22;26309;50.924;4.754;2023-05-15T10:57:31;17.80;99.90
40600;DHT22;26309;50.924;4.754;2023-05-15T10:59:57;18.00;99.90
40600;DHT22;26309;50.924;4.754;2023-05-15T11:02:27;18.20;99.90
40600;DHT22;26309;50.924;4.754;2023-05-15T11:05:01;18.20;99.90
40600;DHT22;26309;50.924;4.754;2023-05-15T11:07:30;18.20;99.90
40600;DHT22;26309;50.924;4.754;2023-05-15T11:09:56;18.00;99.90
40600;DHT22;26309;50.924;4.754;2023-05-15T11:12:22;17.80;99.90
40600;DHT22;26309;50.924;4.754;2023-05-15T11:17:24;17.50;99.90
40600;DHT22;26309;50.924;4.754;2023-05-15T11:22:20;16.90;99.90
40600;DHT22;26309;50.924;4.754;2023-05-15T11:25:14;16.80;99.90
40600;DHT22;26309;50.924;4.754;2023-05-15T11:27:43;16.80;99.90
40600;DHT22;26309;50.924;4.754;2023-05-15T11:30:19;16.80;99.90
40600;DHT22;26309;50.924;4.754;2023-05-15T11:35:33;16.30;99.90
40600;DHT22;26309;50.924;4.754;2023-05-15T11:43:28;16.30;99.90
40600;DHT22;26309;50.924;4.754;2023-05-15T11:46:14;16.20;99.90
40600;DHT22;26309;50.924;4.754;2023-05-15T11:48:44;16.40;99.90
40600;DHT22;26309;50.924;4.754;2023-05-15T11:51:24;16.00;99.90
40600;DHT22;26309;50.924;4.754;2023-05-15T11:53:52;15.70;99.90
40600;DHT22;26309;50.924;4.754;2023-05-15T11:56:24;15.50;99.90
40600;DHT22;26309;50.924;4.754;2023-05-15T11:58:53;15.50;99.90
40600;DHT22;26309;50.924;4.754;2023-05-15T12:01:20;15.80;99.90
40600;DHT22;26309;50.924;4.754;2023-05-15T12:03:47;16.00;99.90
40600;DHT22;26309;50.924;4.754;2023-05-15T12:06:16;16.10;99.90
40600;DHT22;26309;50.924;4.754;2023-05-15T12:08:42;16.20;99.90
40600;DHT22;26309;50.924;4.754;2023-05-15T12:11:09;16.10;99.90
40600;DHT22;26309;50.924;4.754;2023-05-15T12:13:35;16.10;99.90
40600;DHT22;26309;50.924;4.754;2023-05-15T12:16:04;16.10;99.90
40600;DHT22;26309;50.924;4.754;2023-05-15T12:18:31;15.90;99.90
40600;DHT22;26309;50.924;4.754;2023-05-15T12:20:57;15.70;99.90
40600;DHT22;26309;50.924;4.754;2023-05-15T12:23:24;15.50;99.90
40600;DHT22;26309;50.924;4.754;2023-05-15T12:25:55;15.20;99.90
40600;DHT22;26309;50.924;4.754;2023-05-15T12:28:23;15.00;99.90
40600;DHT22;26309;50.924;4.754;2023-05-15T12:30:50;14.80;99.90
40600;DHT22;26309;50.924;4.754;2023-05-15T12:33:16;14.70;99.90
40600;DHT22;26309;50.924;4.754;2023-05-15T12:35:44;14.60;99.90
40600;DHT22;26309;50.924;4.754;2023-05-15T12:38:14;14.60;99.90
40600;DHT22;26309;50.924;4.754;2023-05-15T12:40:42;14.60;99.90
40600;DHT22;26309;50.924;4.754;2023-05-15T12:43:09;14.80;99.90
40600;DHT22;26309;50.924;4.754;2023-05-15T12:45:37;14.80;99.90
40600;DHT22;26309;50.924;4.754;2023-05-15T12:48:04;14.70;99.90
40600;DHT22;26309;50.924;4.754;2023-05-15T12:50:34;15.10;99.90
40600;DHT22;26309;50.924;4.754;2023-05-15T12:53:07;15.20;99.90
40600;DHT22;26309;50.924;4.754;2023-05-15T12:55:35;15.00;99.90
40600;DHT22;26309;50.924;4.754;2023-05-15T12:58:07;14.80;99.90
40600;DHT22;26309;50.924;4.754;2023-05-15T13:00:35;14.50;99.90
40600;DHT22;26309;50.924;4.754;2023-05-15T13:03:01;14.50;99.90
40600;DHT22;26309;50.924;4.754;2023-05-15T13:05:31;14.70;99.90
40600;DHT22;26309;50.924;4.754;2023-05-15T13:08:01;14.90;99.90
40600;DHT22;26309;50.924;4.754;2023-05-15T13:10:31;14.90;99.90
40600;DHT22;26309;50.924;4.754;2023-05-15T13:12:57;15.00;99.90
40600;DHT22;26309;50.924;4.754;2023-05-15T13:15:34;15.00;99.90
40600;DHT22;26309;50.924;4.754;2023-05-15T13:18:02;15.00;99.90
40600;DHT22;26309;50.924;4.754;2023-05-15T13:20:33;15.00;99.90
40600;DHT22;26309;50.924;4.754;2023-05-15T13:23:00;14.90;99.90
40600;DHT22;26309;50.924;4.754;2023-05-15T13:25:26;14.70;99.90
40600;DHT22;26309;50.924;4.754;2023-05-15T13:27:59;14.50;99.90
40600;DHT22;26309;50.924;4.754;2023-05-15T13:30:26;14.30;99.90
40600;DHT22;26309;50.924;4.754;2023-05-15T13:32:52;14.30;99.90
40600;DHT22;26309;50.924;4.754;2023-05-15T13:35:18;14.20;99.90
40600;DHT22;26309;50.924;4.754;2023-05-15T13:37:44;14.10;99.90
40600;DHT22;26309;50.924;4.754;2023-05-15T13:40:10;14.20;99.90
40600;DHT22;26309;50.924;4.754;2023-05-15T13:42:40;14.20;99.90
40600;DHT22;26309;50.924;4.754;2023-05-15T13:45:11;14.20;99.90
40600;DHT22;26309;50.924;4.754;2023-05-15T13:47:38;14.10;99.90
40600;DHT22;26309;50.924;4.754;2023-05-15T13:50:06;13.90;99.90
40600;DHT22;26309;50.924;4.754;2023-05-15T13:52:32;13.90;99.90
40600;DHT22;26309;50.924;4.754;2023-05-15T13:54:58;13.90;99.90
40600;DHT22;26309;50.924;4.754;2023-05-15T13:57:23;14.00;99.90
40600;DHT22;26309;50.924;4.754;2023-05-15T13:59:50;13.90;99.90
40600;DHT22;26309;50.924;4.754;2023-05-15T14:02:16;13.90;99.90
40600;DHT22;26309;50.924;4.754;2023-05-15T14:04:43;14.00;99.90
40600;DHT22;26309;50.924;4.754;2023-05-15T14:07:08;13.80;99.90
40600;DHT22;26309;50.924;4.754;2023-05-15T14:09:34;13.70;99.90
40600;DHT22;26309;50.924;4.754;2023-05-15T14:12:00;13.50;99.90
40600;DHT22;26309;50.924;4.754;2023-05-15T14:14:26;13.60;99.90
40600;DHT22;26309;50.924;4.754;2023-05-15T14:16:52;13.50;99.90
40600;DHT22;26309;50.924;4.754;2023-05-15T14:19:18;13.50;99.90
40600;DHT22;26309;50.924;4.754;2023-05-15T14:21:43;13.40;99.90
40600;DHT22;26309;50.924;4.754;2023-05-15T14:24:09;13.20;99.90
40600;DHT22;26309;50.924;4.754;2023-05-15T14:26:35;13.20;99.90
40600;DHT22;26309;50.924;4.754;2023-05-15T14:29:01;13.20;99.90
40600;DHT22;26309;50.924;4.754;2023-05-15T14:31:27;13.30;99.90
40600;DHT22;26309;50.924;4.754;2023-05-15T14:33:53;13.20;99.90
40600;DHT22;26309;50.924;4.754;2023-05-15T14:36:19;13.10;99.90
40600;DHT22;26309;50.924;4.754;2023-05-15T14:38:44;13.10;99.90
40600;DHT22;26309;50.924;4.754;2023-05-15T14:41:13;13.20;99.90
40600;DHT22;26309;50.924;4.754;2023-05-15T14:43:39;13.20;99.90
40600;DHT22;26309;50.924;4.754;2023-05-15T14:46:05;13.30;99.90
40600;DHT22;26309;50.924;4.754;2023-05-15T14:48:31;13.30;99.90
40600;DHT22;26309;50.924;4.754;2023-05-15T14:50:59;13.30;99.90
40600;DHT22;26309;50.924;4.754;2023-05-15T14:53:25;13.20;99.90
40600;DHT22;26309;50.924;4.754;2023-05-15T14:55:53;12.90;99.90
40600;DHT22;26309;50.924;4.754;2023-05-15T14:58:18;12.90;99.90
40600;DHT22;26309;50.924;4.754;2023-05-15T15:00:44;12.90;99.90
40600;DHT22;26309;50.924;4.754;2023-05-15T15:03:12;12.80;99.90
40600;DHT22;26309;50.924;4.754;2023-05-15T15:05:38;12.90;99.90
40600;DHT22;26309;50.924;4.754;2023-05-15T15:08:05;12.90;99.90
40600;DHT22;26309;50.924;4.754;2023-05-15T15:10:34;12.80;99.90
40600;DHT22;26309;50.924;4.754;2023-05-15T15:13:01;12.70;99.90
40600;DHT22;26309;50.924;4.754;2023-05-15T15:15:27;12.70;99.90
40600;DHT22;26309;50.924;4.754;2023-05-15T15:17:54;12.80;99.90
40600;DHT22;26309;50.924;4.754;2023-05-15T15:20:22;13.10;99.90
40600;DHT22;26309;50.924;4.754;2023-05-15T15:22:50;12.90;99.90
40600;DHT22;26309;50.924;4.754;2023-05-15T15:25:16;12.80;99.90
40600;DHT22;26309;50.924;4.754;2023-05-15T15:27:43;12.80;99.90
40600;DHT22;26309;50.924;4.754;2023-05-15T15:30:09;12.80;99.90
40600;DHT22;26309;50.924;4.754;2023-05-15T15:32:36;13.00;99.90
40600;DHT22;26309;50.924;4.754;2023-05-15T15:35:02;13.10;99.90
40600;DHT22;26309;50.924;4.754;2023-05-15T15:37:33;13.00;99.90
40600;DHT22;26309;50.924;4.754;2023-05-15T15:40:01;12.80;99.90
40600;DHT22;26309;50.924;4.754;2023-05-15T15:42:30;12.60;99.90
40600;DHT22;26309;50.924;4.754;2023-05-15T15:44:57;12.80;99.90
40600;DHT22;26309;50.924;4.754;2023-05-15T15:47:24;12.90;99.90
40600;DHT22;26309;50.924;4.754;2023-05-15T15:49:53;12.90;99.90
40600;DHT22;26309;50.924;4.754;2023-05-15T15:52:19;13.00;99.90
40600;DHT22;26309;50.924;4.754;2023-05-15T15:54:45;13.00;99.90
40600;DHT22;26309;50.924;4.754;2023-05-15T15:57:15;12.80;99.90
40600;DHT22;26309;50.924;4.754;2023-05-15T15:59:41;12.80;99.90
40600;DHT22;26309;50.924;4.754;2023-05-15T16:02:07;12.70;99.90